Have a Safe July 4th! 

Flight Track Log - Related Links

Times and Time Zones

All times are in EDT time to prevent confusion due to time zone crossing. See the ASQ6115 flight status page for this flight to view local times or setup timezone preferences in your user account.

Time Position Orientation Groundspeed Altitude Reporting Facility
EDT Latitude Longitude Course Direction KTS MPH feet Rate Location/Type
Mon 07:14:17 PM 41.9667 -87.8333 347° North 189 217 3,400  Level Chicago TRACON
Mon 07:15:17 PM 41.9667 -87.7500 90° East 253 291 4,900 1,537 Climbing Chicago TRACON
Mon 07:16:00 PM 42.2024 -87.9762 340° North  Level FlightAware Approximate
Mon 07:16:18 PM 42.0000 -87.6833 56° Northeast 287 330 6,500  Level Chicago TRACON
Mon 07:17:00 PM 42.2817 -87.9996 350° North  Level FlightAware Approximate
Mon 07:17:18 PM 42.0833 -87.7333 336° Northwest 288 331 9,800  Level Chicago TRACON
Mon 07:18:00 PM 42.3610 -88.0238 347° North  Level FlightAware Approximate
Mon 07:18:15 PM 42.1533 -87.7692 339° North 344 396 11,200  Level Chicago Center
Mon 07:19:00 PM 42.4386 -88.0477 347° North  Level FlightAware Approximate
Mon 07:19:17 PM 42.2519 -87.7869 352° North 362 417 12,000  Level Chicago Center
Mon 07:20:19 PM 42.3517 -87.8058 352° North 380 437 12,000 -48 Level Chicago Center
Mon 07:21:21 PM 42.4764 -87.8086 359° North 383 441 11,900 -48 Descending Chicago Center
Mon 07:22:23 PM 42.5794 -87.8292 352° North 381 438 11,900 49 Level Chicago Center
Mon 07:23:24 PM 42.6756 -87.8819 338° Northwest 377 434 12,000 49 Climbing Chicago Center
Mon 07:24:26 PM 42.7733 -87.9336 339° North 375 432 12,000  Level Chicago Center
Mon 07:25:28 PM 42.8386 -88.0322 312° West 364 419 12,000  Level Chicago Center
Mon 07:26:30 PM 42.8694 -88.1636 288° West 358 412 12,000 -387 Level Chicago Center
Mon 07:27:32 PM 42.9008 -88.2944 288° West 362 417 11,200 -919 Descending Chicago Center
Mon 07:28:34 PM 42.9372 -88.4444 288° West 357 411 10,100 -537 Descending Chicago Center
Mon 07:29:35 PM 42.9672 -88.5731 288° West 355 409 10,100  Level Chicago Center
Mon 07:30:37 PM 43.0042 -88.6967 292° West 359 413 10,100 -339 Level Chicago Center
Mon 07:31:39 PM 43.0567 -88.7825 310° West 294 338 9,400 -1,210 Descending Chicago Center
Mon 07:32:41 PM 43.1078 -88.8575 313° West 273 314 7,600 -1,694 Descending Chicago Center
Mon 07:33:43 PM 43.1597 -88.9356 312° West 273 314 5,900 -1,659 Descending Chicago Center
Mon 07:34:44 PM 43.1886 -89.0328 292° West 275 316 4,200 -1,415 Descending Chicago Center
Mon 07:35:46 PM 43.2203 -89.1419 292° West 268 308 3,000 -581 Descending Chicago Center
Mon 07:36:48 PM 43.2339 -89.2369 281° West 259 298 3,000 -242 Level Chicago Center
Mon 07:37:50 PM 43.2292 -89.3200 266° West 234 269 2,500 -484 Descending Chicago Center

Login

Don't have an account? Register now (free) for customized features, flight alerts, and more!